createdAt,value
2022-10-08T00:01:21.520Z,16.33
2022-10-08T00:03:51.766Z,13.73
2022-10-08T00:06:31.580Z,14.95
2022-10-08T00:09:04.741Z,13.90
2022-10-08T00:11:37.081Z,16.92
2022-10-08T00:14:04.244Z,15.20
2022-10-08T00:16:42.443Z,14.07
2022-10-08T00:19:13.935Z,16.45
2022-10-08T00:21:43.235Z,13.73
2022-10-08T00:26:43.517Z,14.52
2022-10-08T00:29:13.827Z,14.32
2022-10-08T00:31:42.672Z,13.88
2022-10-08T00:34:13.300Z,14.27
2022-10-08T00:36:42.483Z,13.55
2022-10-08T00:39:17.650Z,18.75
2022-10-08T00:41:48.490Z,16.33
2022-10-08T00:44:55.554Z,14.27
2022-10-08T00:47:37.701Z,14.60
2022-10-08T00:50:25.116Z,18.17
2022-10-08T00:53:08.263Z,17.50
2022-10-08T00:55:38.902Z,15.68
2022-10-08T00:58:16.506Z,16.70
2022-10-08T01:00:44.505Z,12.38
2022-10-08T01:03:13.435Z,15.35
2022-10-08T01:06:05.077Z,19.47
2022-10-08T01:08:46.799Z,14.93
2022-10-08T01:11:37.332Z,18.25
2022-10-08T01:14:39.350Z,16.58
2022-10-08T01:17:38.890Z,16.17
2022-10-08T01:20:14.648Z,15.80
2022-10-08T01:22:59.525Z,15.05
2022-10-08T01:25:58.545Z,15.85
2022-10-08T01:28:25.269Z,16.55
2022-10-08T01:30:56.523Z,13.95
2022-10-08T01:33:35.808Z,16.25
2022-10-08T01:36:07.491Z,13.15
2022-10-08T01:38:35.838Z,11.68
2022-10-08T01:41:12.425Z,15.18
2022-10-08T01:43:44.137Z,17.90
2022-10-08T01:46:14.713Z,13.02
2022-10-08T01:48:46.730Z,18.38
2022-10-08T01:51:24.009Z,12.77
2022-10-08T01:53:51.346Z,16.30
2022-10-08T01:56:23.734Z,13.82
2022-10-08T01:58:54.568Z,11.98
2022-10-08T02:01:36.552Z,18.25
2022-10-08T02:04:22.213Z,14.95
2022-10-08T02:06:54.484Z,10.77
2022-10-08T02:09:24.521Z,12.77
2022-10-08T02:11:51.283Z,12.68
2022-10-08T02:14:23.993Z,15.93
2022-10-08T02:17:00.067Z,14.30
2022-10-08T02:19:58.176Z,15.77
2022-10-08T02:22:32.756Z,13.48
2022-10-08T02:25:22.194Z,10.93
2022-10-08T02:27:57.877Z,13.98
2022-10-08T02:30:25.019Z,13.05
2022-10-08T02:33:05.859Z,13.38
2022-10-08T02:35:53.803Z,13.13
2022-10-08T02:41:46.949Z,12.98
2022-10-08T02:44:17.198Z,13.85
2022-10-08T02:47:11.223Z,13.57
2022-10-08T02:49:41.597Z,13.95
2022-10-08T02:52:14.662Z,12.60
2022-10-08T02:54:44.603Z,13.80
2022-10-08T02:57:20.991Z,13.57
2022-10-08T02:59:48.676Z,12.50
2022-10-08T03:02:22.893Z,15.05
2022-10-08T03:04:56.913Z,11.48
2022-10-08T03:07:26.442Z,14.18
2022-10-08T03:09:54.196Z,14.00
2022-10-08T03:16:14.700Z,15.10
2022-10-08T03:19:12.717Z,13.38
2022-10-08T03:21:46.547Z,14.77
2022-10-08T03:24:14.301Z,15.95
2022-10-08T03:27:02.144Z,14.75
2022-10-08T03:30:06.417Z,14.00
2022-10-08T03:32:58.759Z,13.32
2022-10-08T03:35:25.621Z,15.45
2022-10-08T03:38:01.717Z,14.07
2022-10-08T03:40:30.994Z,17.42
2022-10-08T03:43:02.090Z,12.80
2022-10-08T03:46:12.653Z,13.32
2022-10-08T03:48:48.716Z,14.65
2022-10-08T03:51:45.451Z,14.90
2022-10-08T03:54:20.625Z,14.75
2022-10-08T03:56:49.875Z,14.68
2022-10-08T03:59:16.766Z,15.45
2022-10-08T04:01:46.043Z,13.00
2022-10-08T04:04:25.960Z,13.88
2022-10-08T04:07:38.251Z,11.30
2022-10-08T04:10:08.238Z,13.77
2022-10-08T04:12:42.224Z,13.82
2022-10-08T04:15:09.440Z,14.07
2022-10-08T04:17:41.262Z,13.23
2022-10-08T04:20:14.752Z,12.65
2022-10-08T04:23:10.623Z,15.10
2022-10-08T04:25:49.080Z,14.77
2022-10-08T04:28:18.361Z,15.55
2022-10-08T04:31:01.199Z,13.60
2022-10-08T04:36:26.799Z,13.80
2022-10-08T04:38:53.511Z,15.23
2022-10-08T04:41:31.956Z,17.55
2022-10-08T04:44:03.413Z,12.07
2022-10-08T04:46:32.324Z,12.55
2022-10-08T04:49:04.604Z,14.70
2022-10-08T04:51:33.457Z,14.65
2022-10-08T04:54:02.866Z,16.45
2022-10-08T04:56:37.393Z,12.20
2022-10-08T04:59:06.673Z,15.43
2022-10-08T05:01:39.165Z,16.63
2022-10-08T05:04:11.184Z,14.80
2022-10-08T05:06:47.708Z,13.57
2022-10-08T05:09:14.416Z,18.15
2022-10-08T05:11:44.949Z,13.60
2022-10-08T05:14:11.728Z,14.73
2022-10-08T05:16:41.149Z,14.60
2022-10-08T05:19:12.559Z,14.35
2022-10-08T05:21:43.804Z,13.82
2022-10-08T05:24:14.400Z,13.63
2022-10-08T05:29:30.174Z,14.95
2022-10-08T05:31:59.471Z,12.80
2022-10-08T05:34:28.420Z,18.20
2022-10-08T05:36:57.682Z,12.48
2022-10-08T05:39:26.877Z,14.30
2022-10-08T05:41:54.326Z,15.73
2022-10-08T05:44:23.538Z,13.63
2022-10-08T05:46:50.338Z,18.35
2022-10-08T05:49:20.306Z,15.43
2022-10-08T05:51:50.633Z,15.15
2022-10-08T05:54:18.004Z,14.35
2022-10-08T05:56:44.959Z,14.40
2022-10-08T05:59:26.160Z,16.88
2022-10-08T06:01:52.926Z,17.50
2022-10-08T06:04:19.833Z,15.23
2022-10-08T06:06:48.772Z,20.27
2022-10-08T06:09:18.495Z,17.52
2022-10-08T06:11:45.895Z,15.00
2022-10-08T06:14:20.497Z,16.88
2022-10-08T06:17:09.670Z,16.88
2022-10-08T06:19:38.805Z,16.23
2022-10-08T06:22:08.785Z,19.08
2022-10-08T06:24:35.539Z,16.67
2022-10-08T06:27:04.464Z,16.38
2022-10-08T06:29:33.383Z,15.88
2022-10-08T06:32:00.082Z,16.25
2022-10-08T06:34:26.786Z,16.20
2022-10-08T06:36:55.746Z,16.77
2022-10-08T06:39:22.385Z,15.13
2022-10-08T06:41:49.069Z,18.10
2022-10-08T06:44:21.289Z,18.08
2022-10-08T06:46:53.930Z,15.73
2022-10-08T06:49:22.169Z,16.58
2022-10-08T06:51:49.737Z,17.17
2022-10-08T06:54:16.448Z,16.05
2022-10-08T06:56:43.297Z,16.85
2022-10-08T06:59:10.113Z,14.65
2022-10-08T07:01:37.146Z,17.92
2022-10-08T07:04:05.065Z,16.25
2022-10-08T07:06:34.963Z,17.23
2022-10-08T07:09:05.140Z,16.65
2022-10-08T07:11:35.023Z,23.83
2022-10-08T07:14:06.329Z,17.65
2022-10-08T07:16:33.077Z,16.40
2022-10-08T07:19:00.360Z,18.40
2022-10-08T07:21:28.164Z,18.92
2022-10-08T07:23:54.958Z,16.67
2022-10-08T07:26:24.388Z,18.05
2022-10-08T07:29:00.497Z,17.98
2022-10-08T07:31:29.918Z,21.77
2022-10-08T07:33:57.521Z,20.42
2022-10-08T07:36:27.414Z,16.65
2022-10-08T07:38:59.124Z,17.40
2022-10-08T07:41:26.628Z,17.83
2022-10-08T07:44:03.216Z,16.50
2022-10-08T07:46:35.201Z,18.60
2022-10-08T07:49:03.155Z,17.48
2022-10-08T07:51:33.071Z,18.58
2022-10-08T07:54:03.653Z,16.13
2022-10-08T07:56:33.941Z,16.92
2022-10-08T07:59:04.236Z,16.25
2022-10-08T08:01:36.231Z,17.85
2022-10-08T08:04:05.870Z,18.67
2022-10-08T08:06:42.820Z,18.23
2022-10-08T08:09:15.165Z,16.90
2022-10-08T08:11:46.092Z,16.92
2022-10-08T08:14:17.151Z,16.25
2022-10-08T08:16:44.874Z,13.38
2022-10-08T08:19:14.855Z,13.27
2022-10-08T08:21:43.554Z,16.95
2022-10-08T08:24:14.027Z,16.45
2022-10-08T08:26:45.886Z,19.27
2022-10-08T08:29:19.182Z,19.25
2022-10-08T08:31:49.562Z,13.70
2022-10-08T08:34:18.971Z,15.20
2022-10-08T08:36:53.770Z,20.23
2022-10-08T08:39:27.858Z,13.10
2022-10-08T08:42:20.330Z,14.00
2022-10-08T08:44:54.116Z,15.20
2022-10-08T08:47:41.481Z,15.20
2022-10-08T08:50:27.814Z,14.85
2022-10-08T08:52:57.234Z,19.20
2022-10-08T08:55:35.092Z,18.02
2022-10-08T08:58:41.318Z,14.38
2022-10-08T09:01:36.584Z,16.65
2022-10-08T09:04:11.411Z,18.88
2022-10-08T09:06:40.938Z,13.88
2022-10-08T09:09:22.878Z,15.65
2022-10-08T09:11:49.642Z,13.65
2022-10-08T09:14:37.575Z,13.40
2022-10-08T09:17:16.764Z,13.32
2022-10-08T09:25:25.934Z,13.77
2022-10-08T09:28:06.343Z,13.43
2022-10-08T09:30:33.114Z,15.20
2022-10-08T09:33:04.822Z,12.63
2022-10-08T09:35:37.794Z,14.68
2022-10-08T09:38:09.296Z,11.25
2022-10-08T09:40:36.002Z,15.32
2022-10-08T09:43:16.746Z,13.00
2022-10-08T09:45:48.241Z,13.30
2022-10-08T09:48:27.694Z,15.13
2022-10-08T09:51:04.379Z,12.07
2022-10-08T09:53:43.087Z,15.23
2022-10-08T09:56:36.414Z,13.90
2022-10-08T09:59:13.637Z,15.02
2022-10-08T10:01:49.398Z,14.18
2022-10-08T10:04:35.506Z,11.00
2022-10-08T10:07:05.025Z,15.82
2022-10-08T10:09:42.598Z,14.75
2022-10-08T10:12:28.701Z,10.82
2022-10-08T10:14:59.604Z,9.10
2022-10-08T10:17:39.761Z,11.55
2022-10-08T10:20:18.113Z,16.60
2022-10-08T10:22:59.550Z,12.07
2022-10-08T10:25:47.784Z,10.57
2022-10-08T10:28:24.124Z,12.57
2022-10-08T10:31:07.654Z,9.18
2022-10-08T10:33:41.781Z,15.38
2022-10-08T10:36:14.405Z,9.32
2022-10-08T10:39:25.872Z,10.52
2022-10-08T10:42:15.436Z,13.43
2022-10-08T10:45:18.410Z,12.75
2022-10-08T10:47:54.675Z,10.73
2022-10-08T10:50:35.754Z,13.77
2022-10-08T10:53:37.478Z,7.88
2022-10-08T10:56:21.034Z,12.43
2022-10-08T10:59:02.626Z,7.90
2022-10-08T11:01:45.631Z,8.38
2022-10-08T11:04:37.256Z,12.82
2022-10-08T11:07:38.025Z,9.70
2022-10-08T11:10:42.211Z,8.95
2022-10-08T11:13:27.296Z,11.73
2022-10-08T11:16:11.903Z,9.10
2022-10-08T11:18:53.893Z,10.88
2022-10-08T11:21:47.942Z,11.00
2022-10-08T11:24:28.070Z,8.35
2022-10-08T11:27:12.780Z,9.40
2022-10-08T11:29:49.842Z,10.02
2022-10-08T11:32:22.447Z,6.57
2022-10-08T11:35:11.846Z,6.88
2022-10-08T11:38:12.702Z,8.02
2022-10-08T11:40:48.715Z,8.68
2022-10-08T11:43:15.356Z,11.93
2022-10-08T11:45:46.225Z,9.88
2022-10-08T11:48:35.152Z,7.90
2022-10-08T11:51:20.081Z,12.40
2022-10-08T11:54:14.668Z,8.20
2022-10-08T11:56:50.025Z,5.68
2022-10-08T11:59:36.793Z,6.63
2022-10-08T12:02:19.457Z,7.55
2022-10-08T12:04:48.927Z,9.07
2022-10-08T12:07:15.606Z,10.18
2022-10-08T12:10:09.008Z,8.37
2022-10-08T12:12:51.159Z,6.10
2022-10-08T12:15:40.553Z,8.60
2022-10-08T12:18:13.466Z,7.10
2022-10-08T12:20:43.440Z,8.73
2022-10-08T12:23:15.925Z,8.57
2022-10-08T12:25:50.813Z,5.68
2022-10-08T12:28:20.576Z,6.35
2022-10-08T12:30:54.842Z,4.00
2022-10-08T12:33:25.243Z,3.42
2022-10-08T12:36:29.168Z,5.03
2022-10-08T12:39:28.993Z,3.13
2022-10-08T12:42:06.700Z,3.72
2022-10-08T12:45:00.455Z,4.28
2022-10-08T12:47:50.545Z,6.13
2022-10-08T12:50:23.441Z,4.30
2022-10-08T12:52:53.388Z,8.45
2022-10-08T12:55:24.343Z,5.57
2022-10-08T12:57:51.311Z,4.85
2022-10-08T13:00:30.695Z,3.30
2022-10-08T13:03:03.561Z,4.55
2022-10-08T13:05:31.746Z,2.67
2022-10-08T13:08:15.085Z,4.90
2022-10-08T13:10:42.932Z,5.38
2022-10-08T13:13:34.407Z,5.88
2022-10-08T13:18:35.616Z,5.70
2022-10-08T13:21:20.575Z,5.10
2022-10-08T13:23:47.273Z,4.40
2022-10-08T13:26:44.848Z,4.60
2022-10-08T13:29:23.785Z,4.43
2022-10-08T13:32:05.447Z,6.22
2022-10-08T13:34:37.588Z,5.45
2022-10-08T13:37:12.301Z,6.75
2022-10-08T13:39:41.149Z,3.70
2022-10-08T13:42:15.213Z,4.25
2022-10-08T13:44:45.639Z,5.53
2022-10-08T13:47:17.101Z,6.45
2022-10-08T13:49:48.904Z,4.85
2022-10-08T13:52:23.468Z,4.30
2022-10-08T13:54:53.290Z,6.55
2022-10-08T13:57:19.989Z,6.88
2022-10-08T13:59:46.686Z,7.50
2022-10-08T14:02:14.219Z,3.92
2022-10-08T14:04:41.202Z,5.20
2022-10-08T14:07:23.109Z,8.00
2022-10-08T14:09:49.836Z,4.25
2022-10-08T14:12:23.245Z,6.55
2022-10-08T14:14:49.942Z,3.35
2022-10-08T14:17:18.845Z,4.82
2022-10-08T14:22:12.529Z,7.07
2022-10-08T14:24:41.524Z,5.47
2022-10-08T14:27:10.568Z,6.35
2022-10-08T14:29:37.442Z,3.65
2022-10-08T14:32:05.636Z,6.72
2022-10-08T14:34:32.397Z,5.03
2022-10-08T14:37:01.616Z,4.57
2022-10-08T14:39:31.514Z,6.78
2022-10-08T14:41:58.775Z,4.43
2022-10-08T14:44:25.539Z,4.45
2022-10-08T14:46:57.276Z,6.93
2022-10-08T14:49:24.168Z,4.88
2022-10-08T14:51:50.982Z,4.20
2022-10-08T14:54:21.264Z,4.55
2022-10-08T14:56:48.001Z,4.32
2022-10-08T14:59:14.932Z,8.63
2022-10-08T15:01:41.666Z,5.72
2022-10-08T15:04:13.297Z,5.80
2022-10-08T15:06:42.645Z,5.30
2022-10-08T15:09:17.249Z,4.00
2022-10-08T15:11:44.021Z,4.47
2022-10-08T15:14:10.710Z,8.32
2022-10-08T15:16:40.157Z,8.43
2022-10-08T15:19:10.379Z,4.82
2022-10-08T15:21:39.658Z,5.57
2022-10-08T15:24:06.493Z,6.70
2022-10-08T15:26:35.422Z,5.15
2022-10-08T15:31:44.552Z,3.67
2022-10-08T15:34:18.670Z,8.80
2022-10-08T15:36:45.831Z,4.90
2022-10-08T15:39:17.515Z,6.13
2022-10-08T15:41:46.884Z,8.20
2022-10-08T15:44:22.103Z,7.93
2022-10-08T15:46:50.542Z,7.88
2022-10-08T15:49:17.347Z,6.90
2022-10-08T15:51:44.098Z,6.95
2022-10-08T15:54:10.822Z,7.13
2022-10-08T15:56:39.808Z,6.00
2022-10-08T16:01:47.254Z,8.40
2022-10-08T16:04:16.899Z,10.73
2022-10-08T16:06:48.098Z,7.88
2022-10-08T16:09:19.224Z,9.18
2022-10-08T16:11:46.595Z,11.27
2022-10-08T16:14:16.114Z,8.85
2022-10-08T16:16:45.577Z,8.02
2022-10-08T16:19:19.568Z,5.68
2022-10-08T16:21:48.138Z,7.65
2022-10-08T16:24:20.186Z,10.27
2022-10-08T16:26:48.686Z,12.27
2022-10-08T16:29:16.880Z,8.10
2022-10-08T16:31:46.776Z,12.77
2022-10-08T16:34:15.120Z,8.32
2022-10-08T16:36:42.505Z,10.00
2022-10-08T16:39:13.516Z,6.35
2022-10-08T16:41:43.631Z,9.45
2022-10-08T16:44:13.255Z,11.43
2022-10-08T16:46:45.408Z,8.43
2022-10-08T16:49:18.462Z,7.35
2022-10-08T16:51:57.413Z,7.28
2022-10-08T16:54:27.407Z,11.45
2022-10-08T16:56:56.958Z,10.15
2022-10-08T16:59:28.961Z,9.35
2022-10-08T17:01:58.099Z,13.90
2022-10-08T17:04:26.664Z,9.95
2022-10-08T17:06:53.531Z,7.30
2022-10-08T17:09:25.435Z,13.20
2022-10-08T17:11:52.622Z,11.65
2022-10-08T17:14:19.387Z,12.15
2022-10-08T17:16:46.237Z,11.15
2022-10-08T17:19:13.299Z,9.63
2022-10-08T17:21:40.665Z,10.23
2022-10-08T17:24:07.944Z,8.02
2022-10-08T17:26:37.868Z,9.63
2022-10-08T17:29:10.279Z,10.40
2022-10-08T17:31:39.771Z,9.20
2022-10-08T17:34:06.714Z,10.30
2022-10-08T17:36:35.788Z,13.00
2022-10-08T17:41:36.027Z,10.48
2022-10-08T17:44:07.862Z,9.93
2022-10-08T17:46:43.142Z,10.45
2022-10-08T17:49:10.373Z,10.88
2022-10-08T17:51:39.835Z,14.32
2022-10-08T17:54:10.378Z,14.23
2022-10-08T17:56:39.197Z,10.10
2022-10-08T17:59:08.110Z,11.07
2022-10-08T18:01:39.190Z,10.35
2022-10-08T18:04:10.152Z,12.80
2022-10-08T18:06:41.061Z,9.18
2022-10-08T18:09:11.559Z,9.40
2022-10-08T18:11:44.876Z,10.82
2022-10-08T18:14:12.059Z,8.80
2022-10-08T18:16:44.259Z,14.52
2022-10-08T18:19:19.687Z,14.00
2022-10-08T18:21:46.722Z,14.05
2022-10-08T18:24:14.044Z,13.05
2022-10-08T18:26:43.398Z,14.32
2022-10-08T18:29:14.599Z,12.73
2022-10-08T18:31:45.079Z,12.50
2022-10-08T18:34:18.233Z,18.27
2022-10-08T18:36:45.620Z,19.80
2022-10-08T18:39:16.723Z,13.77
2022-10-08T18:41:45.720Z,13.45
2022-10-08T18:44:23.541Z,10.60
2022-10-08T18:46:50.953Z,15.90
2022-10-08T18:49:24.299Z,15.63
2022-10-08T18:51:51.059Z,16.50
2022-10-08T18:54:22.531Z,15.23
2022-10-08T18:56:49.259Z,15.55
2022-10-08T18:59:19.508Z,13.43
2022-10-08T19:01:47.639Z,14.02
2022-10-08T19:04:19.814Z,12.70
2022-10-08T19:06:50.082Z,11.43
2022-10-08T19:09:17.012Z,15.00
2022-10-08T19:11:46.852Z,12.60
2022-10-08T19:14:16.115Z,15.88
2022-10-08T19:21:42.195Z,11.55
2022-10-08T19:24:14.002Z,15.18
2022-10-08T19:26:43.303Z,12.32
2022-10-08T19:31:39.446Z,15.50
2022-10-08T19:34:07.616Z,12.60
2022-10-08T19:36:40.444Z,13.20
2022-10-08T19:39:14.040Z,12.85
2022-10-08T19:41:44.182Z,14.77
2022-10-08T19:44:11.811Z,11.65
2022-10-08T19:46:38.793Z,13.43
2022-10-08T19:49:06.861Z,14.90
2022-10-08T19:51:36.217Z,16.35
2022-10-08T19:54:06.732Z,16.33
2022-10-08T19:56:33.520Z,15.77
2022-10-08T19:59:02.497Z,14.05
2022-10-08T20:01:36.600Z,16.02
2022-10-08T20:04:09.699Z,17.67
2022-10-08T20:06:39.165Z,14.15
2022-10-08T20:09:13.181Z,14.85
2022-10-08T20:11:41.046Z,16.17
2022-10-08T20:14:07.805Z,19.25
2022-10-08T20:16:37.141Z,19.70
2022-10-08T20:19:16.730Z,15.23
2022-10-08T20:21:43.806Z,15.20
2022-10-08T20:24:10.861Z,16.17
2022-10-08T20:26:39.635Z,17.15
2022-10-08T20:29:13.153Z,18.75
2022-10-08T20:31:50.102Z,16.00
2022-10-08T20:34:19.693Z,15.13
2022-10-08T20:36:48.944Z,14.35
2022-10-08T20:39:17.670Z,15.00
2022-10-08T20:41:46.966Z,12.85
2022-10-08T20:44:16.534Z,12.90
2022-10-08T20:46:46.010Z,17.20
2022-10-08T20:49:13.438Z,17.48
2022-10-08T20:51:41.674Z,12.77
2022-10-08T20:54:10.491Z,21.30
2022-10-08T20:56:40.677Z,15.48
2022-10-08T20:59:09.161Z,13.68
2022-10-08T21:01:38.328Z,16.17
2022-10-08T21:04:05.837Z,16.60
2022-10-08T21:06:43.821Z,16.48
2022-10-08T21:09:11.409Z,16.90
2022-10-08T21:11:38.673Z,14.02
2022-10-08T21:14:09.169Z,15.25
2022-10-08T21:16:38.463Z,16.23
2022-10-08T21:21:33.656Z,15.05
2022-10-08T21:24:02.702Z,17.92
2022-10-08T21:26:47.484Z,15.43
2022-10-08T21:29:14.540Z,15.77
2022-10-08T21:31:44.101Z,16.35
2022-10-08T21:34:12.429Z,12.93
2022-10-08T21:36:40.543Z,15.95
2022-10-08T21:39:08.420Z,12.20
2022-10-08T21:41:36.683Z,15.68
2022-10-08T21:44:06.499Z,13.55
2022-10-08T21:46:36.487Z,16.55
2022-10-08T21:49:06.154Z,20.70
2022-10-08T21:51:34.019Z,17.95
2022-10-08T21:54:04.511Z,13.27
2022-10-08T21:56:32.861Z,14.65
2022-10-08T21:59:03.829Z,14.80
2022-10-08T22:01:35.135Z,31.42
2022-10-08T22:04:06.013Z,18.70
2022-10-08T22:06:34.199Z,16.40
2022-10-08T22:09:05.317Z,15.82
2022-10-08T22:11:34.710Z,15.52
2022-10-08T22:16:32.744Z,15.98
2022-10-08T22:18:59.613Z,13.60
2022-10-08T22:21:26.399Z,18.95
2022-10-08T22:23:53.640Z,13.15
2022-10-08T22:26:31.875Z,17.45
2022-10-08T22:28:58.720Z,16.10
2022-10-08T22:31:28.205Z,16.60
2022-10-08T22:33:55.182Z,15.15
2022-10-08T22:36:27.430Z,21.33
2022-10-08T22:38:57.366Z,14.23
2022-10-08T22:41:26.628Z,17.35
2022-10-08T22:43:53.286Z,16.40
2022-10-08T22:46:23.026Z,14.95
2022-10-08T22:48:51.917Z,14.50
2022-10-08T22:51:20.750Z,15.90
2022-10-08T22:53:51.611Z,13.00
2022-10-08T22:56:23.642Z,15.52
2022-10-08T22:58:50.819Z,17.25
2022-10-08T23:01:22.796Z,15.25
2022-10-08T23:03:49.933Z,16.02
2022-10-08T23:06:20.992Z,13.20
2022-10-08T23:08:52.508Z,14.52
2022-10-08T23:11:19.222Z,13.35
2022-10-08T23:13:49.897Z,14.55
2022-10-08T23:16:16.721Z,16.15
2022-10-08T23:18:45.835Z,14.38
2022-10-08T23:21:16.055Z,15.10
2022-10-08T23:23:46.903Z,14.35
2022-10-08T23:26:14.536Z,17.58
2022-10-08T23:28:44.323Z,14.98
2022-10-08T23:31:18.396Z,15.73
2022-10-08T23:33:49.882Z,19.83
2022-10-08T23:36:19.071Z,17.60
2022-10-08T23:38:45.777Z,18.00
2022-10-08T23:41:12.944Z,18.77
2022-10-08T23:43:41.996Z,19.10
2022-10-08T23:46:10.291Z,20.52
2022-10-08T23:48:37.426Z,15.80
2022-10-08T23:51:04.716Z,17.30
2022-10-08T23:53:31.754Z,17.00
2022-10-08T23:55:58.429Z,15.80
2022-10-08T23:58:25.342Z,17.38
